Time;durP1;ratioP1;P1;durP2;ratioP2;P2;SDS_P1;SDS_P2;PMS_P1;PMS_P2;Temp;Humidity;BMP_temperature;BMP_pressure;BME280_temperature;BME280_humidity;BME280_pressure;Samples;Min_cycle;Max_cycle;Signal;HPM_P1;HPM_P2
2021/04/07 00:01:33;;;;;;;3.22;0.88;;;-1.80;96.30;;;;;;5037686;28;20029;-80
2021/04/07 00:03:58;;;;;;;2.03;0.90;;;-1.80;96.60;;;;;;5038108;28;20025;-82
2021/04/07 00:06:24;;;;;;;2.88;1.15;;;-1.80;96.80;;;;;;5037696;28;20017;-81
2021/04/07 00:08:50;;;;;;;1.48;0.80;;;-1.90;97.00;;;;;;5055491;28;20025;-80
2021/04/07 00:11:17;;;;;;;1.75;0.85;;;-1.90;97.20;;;;;;5037878;28;20029;-81
2021/04/07 00:13:44;;;;;;;2.88;0.88;;;-1.90;97.10;;;;;;5037592;28;20083;-80
2021/04/07 00:16:09;;;;;;;5.07;3.47;;;-1.80;96.90;;;;;;5037328;28;20055;-80
2021/04/07 00:18:35;;;;;;;3.22;1.48;;;-1.90;96.80;;;;;;5037641;28;20107;-82
2021/04/07 00:21:01;;;;;;;3.13;1.27;;;-1.90;97.20;;;;;;5037321;28;20025;-81
2021/04/07 00:23:27;;;;;;;4.28;1.17;;;-1.90;97.20;;;;;;5037418;28;20021;-79
2021/04/07 00:25:53;;;;;;;9.23;6.28;;;-1.90;97.10;;;;;;5037463;28;20031;-81
2021/04/07 00:28:21;;;;;;;6.57;3.30;;;-2.00;97.20;;;;;;5037386;28;20476;-81
2021/04/07 00:30:47;;;;;;;15.07;6.28;;;-2.10;97.50;;;;;;5037019;28;20476;-81
2021/04/07 00:33:13;;;;;;;10.60;4.55;;;-2.10;97.70;;;;;;5037011;28;20021;-80
2021/04/07 00:35:38;;;;;;;5.47;2.35;;;-2.10;97.80;;;;;;5037047;28;20036;-79
2021/04/07 00:38:04;;;;;;;3.88;1.92;;;-2.20;98.10;;;;;;5037217;28;20061;-78
2021/04/07 00:40:30;;;;;;;3.45;1.20;;;-2.30;98.30;;;;;;5054958;28;20025;-80
2021/04/07 00:42:55;;;;;;;4.70;1.52;;;-2.30;98.40;;;;;;5037644;28;20135;-80
2021/04/07 00:45:22;;;;;;;5.82;2.80;;;-2.30;98.50;;;;;;5037474;28;20021;-80
2021/04/07 00:47:50;;;;;;;5.97;2.38;;;-2.40;98.60;;;;;;5037221;28;20045;-80
2021/04/07 00:50:17;;;;;;;2.95;1.75;;;-2.40;98.70;;;;;;5036978;28;20028;-80
2021/04/07 00:52:43;;;;;;;5.75;1.80;;;-2.40;98.80;;;;;;5037239;28;20362;-80
2021/04/07 00:55:10;;;;;;;2.90;1.77;;;-2.40;98.60;;;;;;5037207;28;20031;-81
2021/04/07 00:57:36;;;;;;;7.57;4.43;;;-2.40;98.50;;;;;;5036648;28;20071;-80
2021/04/07 01:00:03;;;;;;;9.32;4.60;;;-2.40;98.20;;;;;;5037393;28;20025;-80
2021/04/07 01:02:29;;;;;;;7.45;2.50;;;-2.40;98.10;;;;;;5036860;28;20029;-81
2021/04/07 01:04:55;;;;;;;3.60;1.83;;;-2.40;98.10;;;;;;5055146;28;20849;-80
2021/04/07 01:07:21;;;;;;;7.03;2.22;;;-2.40;98.40;;;;;;5037280;28;20032;-80
2021/04/07 01:09:46;;;;;;;4.10;1.92;;;-2.40;98.70;;;;;;5036930;28;20385;-81
2021/04/07 01:12:12;;;;;;;5.10;2.10;;;-2.30;99.10;;;;;;5037160;28;20029;-80
2021/04/07 01:14:39;;;;;;;4.85;2.00;;;-2.50;98.90;;;;;;5036794;28;20044;-81
2021/04/07 01:17:06;;;;;;;6.00;2.38;;;-2.60;98.80;;;;;;5036871;28;20033;-80
2021/04/07 01:19:32;;;;;;;4.80;1.95;;;-2.70;99.00;;;;;;5037147;28;20170;-81
2021/04/07 01:21:58;;;;;;;5.95;1.80;;;-2.80;99.00;;;;;;5020426;28;20029;-80
2021/04/07 01:24:25;;;;;;;4.28;1.80;;;-2.70;99.00;;;;;;5037037;28;20021;-80
2021/04/07 01:26:51;;;;;;;6.18;2.65;;;-2.80;98.80;;;;;;5036647;28;20021;-82
2021/04/07 01:29:18;;;;;;;5.35;2.35;;;-2.80;99.20;;;;;;5036798;28;20029;-79
2021/04/07 01:31:46;;;;;;;3.85;1.75;;;-2.70;99.40;;;;;;5054412;28;20364;-80
2021/04/07 01:34:31;;;;;;;5.80;3.25;;;-2.70;99.40;;;;;;5036638;28;20120;-80
2021/04/07 01:36:58;;;;;;;6.72;2.03;;;-2.70;99.10;;;;;;5036537;28;20049;-80
2021/04/07 01:39:27;;;;;;;6.05;2.13;;;-2.70;99.50;;;;;;5036677;28;20384;-80
2021/04/07 01:41:52;;;;;;;3.30;1.70;;;-2.70;99.60;;;;;;5036528;28;20031;-80
2021/04/07 01:44:21;;;;;;;4.25;1.95;;;-2.80;99.80;;;;;;5036981;28;20111;-80
2021/04/07 01:46:48;;;;;;;3.10;1.48;;;-2.80;99.40;;;;;;5036812;28;20550;-80
2021/04/07 01:49:14;;;;;;;4.75;1.83;;;-2.80;98.80;;;;;;5036861;28;20087;-79
2021/04/07 01:51:41;;;;;;;5.07;1.80;;;-2.90;98.90;;;;;;5036573;28;20496;-81
2021/04/07 01:54:11;;;;;;;4.15;2.13;;;-2.90;99.40;;;;;;5036824;28;20108;-80
2021/04/07 01:56:56;;;;;;;4.35;1.73;;;-2.90;98.90;;;;;;5036311;28;20384;-83
2021/04/07 01:59:28;;;;;;;5.13;2.03;;;-3.00;99.10;;;;;;5036611;28;20017;-83
2021/04/07 02:01:55;;;;;;;5.63;1.92;;;-3.10;99.60;;;;;;5053889;28;20029;-81
2021/04/07 02:04:22;;;;;;;6.10;2.08;;;-3.10;99.60;;;;;;5036344;28;20353;-81
2021/04/07 02:06:48;;;;;;;4.82;2.10;;;-3.00;99.40;;;;;;5035923;28;20051;-79
2021/04/07 02:09:16;;;;;;;4.28;1.88;;;-3.10;99.40;;;;;;5038755;28;20029;-81
2021/04/07 02:11:47;;;;;;;4.30;1.88;;;-3.20;99.60;;;;;;5040666;28;20032;-81
2021/04/07 02:14:18;;;;;;;6.60;1.95;;;-3.20;99.90;;;;;;5042994;28;20028;-82
2021/04/07 02:16:57;;;;;;;4.55;1.85;;;-3.20;99.90;;;;;;5041265;28;20059;-81
2021/04/07 02:19:24;;;;;;;4.38;1.80;;;-3.20;99.90;;;;;;5040493;28;20078;-80
2021/04/07 02:22:11;;;;;;;3.60;1.75;;;-3.20;99.90;;;;;;5040299;28;20025;-80
2021/04/07 02:24:38;;;;;;;3.03;1.50;;;-3.20;99.90;;;;;;5039941;28;20021;-80
2021/04/07 02:27:14;;;;;;;3.13;1.45;;;-3.20;99.90;;;;;;5040090;28;20078;-80
2021/04/07 02:29:42;;;;;;;5.22;2.40;;;-3.30;99.90;;;;;;5040315;28;20028;-82
2021/04/07 02:32:07;;;;;;;4.15;2.00;;;-3.30;99.90;;;;;;5039857;28;20115;-81
2021/04/07 02:34:34;;;;;;;5.20;2.08;;;-3.30;99.90;;;;;;5058438;28;20538;-80
2021/04/07 02:37:00;;;;;;;3.78;2.28;;;-3.30;99.90;;;;;;5039614;28;20076;-81
2021/04/07 02:39:26;;;;;;;4.40;1.73;;;-3.30;99.90;;;;;;5058123;28;20029;-82
2021/04/07 02:41:52;;;;;;;4.38;1.90;;;-3.30;99.90;;;;;;5057807;28;20060;-82
2021/04/07 02:44:18;;;;;;;4.30;1.98;;;-3.30;99.90;;;;;;5039558;28;20030;-80
2021/04/07 02:46:44;;;;;;;3.72;1.95;;;-3.30;99.90;;;;;;5039954;28;20487;-80
2021/04/07 02:49:10;;;;;;;6.93;3.15;;;-3.30;99.90;;;;;;5023557;28;20040;-81
2021/04/07 02:51:35;;;;;;;3.72;1.67;;;-3.30;99.90;;;;;;5040200;28;20723;-80
2021/04/07 02:54:02;;;;;;;2.92;1.50;;;-3.20;99.90;;;;;;5040145;28;20457;-81
2021/04/07 02:56:31;;;;;;;4.50;1.85;;;-3.20;99.90;;;;;;5039414;28;20044;-80
2021/04/07 02:58:58;;;;;;;5.78;2.67;;;-3.20;99.90;;;;;;5023747;28;20037;-81
2021/04/07 03:01:23;;;;;;;4.50;2.17;;;-3.20;99.90;;;;;;5039827;28;20061;-80
2021/04/07 03:03:49;;;;;;;7.13;2.72;;;-3.20;99.90;;;;;;5038914;28;20025;-81
2021/04/07 03:06:15;;;;;;;5.55;1.90;;;-3.20;99.90;;;;;;5039110;28;20065;-80
2021/04/07 03:08:40;;;;;;;4.25;1.98;;;-3.10;99.90;;;;;;5039172;28;20483;-80
2021/04/07 03:11:06;;;;;;;9.75;2.83;;;-3.10;99.90;;;;;;5039840;28;20040;-80
2021/04/07 03:13:33;;;;;;;6.20;3.70;;;-3.20;99.90;;;;;;5057161;28;20052;-81
2021/04/07 03:15:59;;;;;;;4.85;2.30;;;-3.20;99.90;;;;;;5039446;28;20024;-82
2021/04/07 03:18:25;;;;;;;6.57;2.30;;;-3.30;99.90;;;;;;5039419;28;20073;-81
2021/04/07 03:20:50;;;;;;;2.65;1.80;;;-3.30;99.90;;;;;;5039283;28;20063;-81
2021/04/07 03:23:16;;;;;;;7.53;2.70;;;-3.40;99.90;;;;;;5023029;28;20033;-80
2021/04/07 03:25:42;;;;;;;3.45;2.05;;;-3.40;99.90;;;;;;5038958;28;20025;-80
2021/04/07 03:28:09;;;;;;;4.78;2.00;;;-3.40;99.80;;;;;;5057013;28;20108;-81
2021/04/07 03:33:21;;;;;;;6.90;2.03;;;-3.50;99.90;;;;;;5056679;28;20093;-81
2021/04/07 03:35:48;;;;;;;7.00;2.60;;;-3.60;99.90;;;;;;5034696;28;20080;-81
2021/04/07 03:38:14;;;;;;;4.93;2.13;;;-3.60;99.90;;;;;;5018918;28;20034;-81
2021/04/07 03:40:42;;;;;;;5.85;3.13;;;-3.50;99.90;;;;;;5019533;28;20021;-80
2021/04/07 03:43:09;;;;;;;7.05;2.22;;;-3.50;99.90;;;;;;5037562;28;20037;-80
2021/04/07 03:45:35;;;;;;;3.83;2.65;;;-3.60;99.90;;;;;;5019126;28;20018;-80
2021/04/07 03:48:01;;;;;;;4.43;2.10;;;-3.60;99.90;;;;;;5019737;28;20020;-80
2021/04/07 03:50:27;;;;;;;6.90;2.63;;;-2.10;99.40;;;;;;5020233;28;20385;-78
2021/04/07 03:52:52;;;;;;;5.65;2.50;;;-2.30;98.90;;;;;;5017459;28;20021;-79
2021/04/07 03:55:19;;;;;;;6.75;2.65;;;-2.80;98.50;;;;;;5022459;28;20490;-79
2021/04/07 03:57:44;;;;;;;8.98;2.67;;;-3.00;99.70;;;;;;5023064;28;20038;-81
2021/04/07 04:00:11;;;;;;;5.47;2.60;;;-3.10;99.90;;;;;;5020358;28;20451;-83
2021/04/07 04:02:37;;;;;;;7.38;3.95;;;-3.30;99.90;;;;;;5020313;28;20025;-82
2021/04/07 04:05:04;;;;;;;7.72;3.72;;;-3.40;99.90;;;;;;5020425;28;20032;-82
2021/04/07 04:07:30;;;;;;;7.32;4.03;;;-3.50;99.90;;;;;;5020682;28;20060;-84
2021/04/07 04:09:56;;;;;;;6.13;3.33;;;-3.60;99.90;;;;;;5019639;28;20582;-82
2021/04/07 04:12:23;;;;;;;8.23;4.00;;;-3.50;99.90;;;;;;5019877;28;20076;-82
2021/04/07 04:14:48;;;;;;;6.93;3.58;;;-3.60;99.90;;;;;;5019412;28;20473;-83
2021/04/07 04:17:18;;;;;;;4.20;2.95;;;-3.60;99.90;;;;;;5019370;28;20038;-81
2021/04/07 04:19:43;;;;;;;8.95;3.00;;;-3.60;99.90;;;;;;5020003;28;20029;-81
2021/04/07 04:22:09;;;;;;;7.53;2.97;;;-3.70;99.90;;;;;;5019936;28;20036;-82
2021/04/07 04:24:36;;;;;;;5.82;2.95;;;-3.70;99.90;;;;;;5019922;28;20033;-82
2021/04/07 04:27:06;;;;;;;8.65;3.38;;;-3.80;99.90;;;;;;5019339;28;20655;-82
2021/04/07 04:29:33;;;;;;;9.93;4.70;;;-3.80;99.90;;;;;;5019494;28;20035;-81
2021/04/07 04:31:58;;;;;;;11.10;6.03;;;-3.70;99.90;;;;;;5018183;28;20457;-82
2021/04/07 04:34:24;;;;;;;12.32;6.57;;;-3.60;99.90;;;;;;5019609;28;20035;-82
2021/04/07 04:36:50;;;;;;;16.67;7.18;;;-3.60;99.90;;;;;;5018750;28;20057;-82
2021/04/07 04:39:15;;;;;;;11.23;5.68;;;-3.50;99.90;;;;;;5018727;28;20060;-82
2021/04/07 04:41:41;;;;;;;10.38;5.47;;;-3.40;99.90;;;;;;5019127;28;20030;-82
2021/04/07 04:44:08;;;;;;;11.50;5.72;;;-3.40;99.90;;;;;;5019033;28;20025;-81
2021/04/07 04:46:34;;;;;;;12.30;5.68;;;-3.30;99.90;;;;;;5020197;28;20025;-82
2021/04/07 04:48:59;;;;;;;11.73;4.75;;;-3.30;99.90;;;;;;5019643;28;20036;-83
2021/04/07 04:51:25;;;;;;;13.88;6.57;;;-3.30;99.90;;;;;;5019463;28;20044;-82
2021/04/07 04:53:50;;;;;;;14.60;5.72;;;-3.20;99.90;;;;;;5002737;28;20072;-82
2021/04/07 04:56:16;;;;;;;14.45;5.47;;;-0.30;99.90;;;;;;5019682;28;20044;-82
2021/04/07 04:58:42;;;;;;;12.05;5.10;;;1.00;88.60;;;;;;5036750;28;20032;-82
2021/04/07 05:01:09;;;;;;;10.10;4.82;;;0.10;91.70;;;;;;5018883;28;20026;-85
2021/04/07 05:03:35;;;;;;;11.63;5.35;;;-0.70;94.40;;;;;;5036756;28;20456;-82
2021/04/07 05:06:01;;;;;;;12.02;6.20;;;-1.20;95.90;;;;;;5023932;28;20060;-81
2021/04/07 05:08:28;;;;;;;23.45;7.13;;;1.60;98.10;;;;;;5034199;28;20025;-84
2021/04/07 05:11:03;;;;;;;10.20;6.03;;;2.70;92.70;;;;;;5028617;28;20048;-81
2021/04/07 05:13:38;;;;;;;10.20;6.22;;;3.50;78.80;;;;;;5032519;28;20085;-80
2021/04/07 05:16:04;;;;;;;;;;;2.60;80.10;;;;;;5046170;28;20056;-81
2021/04/07 05:18:30;;;;;;;13.77;7.00;;;3.00;74.90;;;;;;5025568;28;19904;-85
2021/04/07 05:20:55;;;;;;;16.83;7.22;;;2.00;80.60;;;;;;5018463;28;20481;-85
2021/04/07 05:23:21;;;;;;;13.77;6.60;;;2.20;85.30;;;;;;5005615;28;20120;-83
2021/04/07 05:25:47;;;;;;;13.50;5.82;;;2.60;78.40;;;;;;5000121;28;20436;-83
2021/04/07 05:28:12;;;;;;;14.75;5.80;;;2.80;77.10;;;;;;4999775;28;20041;-84
2021/04/07 05:33:23;;;;;;;14.18;6.53;;;2.10;78.60;;;;;;5016697;28;20048;-82
2021/04/07 05:35:50;;;;;;;17.52;6.55;;;2.20;84.50;;;;;;4998132;28;20046;-79
2021/04/07 05:38:21;;;;;;;15.52;6.43;;;2.50;83.70;;;;;;4998452;28;20121;-83
2021/04/07 05:40:47;;;;;;;10.38;5.80;;;2.50;85.50;;;;;;4999449;28;20100;-85
2021/04/07 05:43:13;;;;;;;12.80;6.13;;;3.00;75.10;;;;;;5015939;28;20038;-82
2021/04/07 05:45:39;;;;;;;11.93;6.50;;;2.40;79.10;;;;;;5016087;28;20054;-82
2021/04/07 05:48:08;;;;;;;20.65;6.72;;;3.30;79.30;;;;;;4998716;28;20026;-84
2021/04/07 05:50:42;;;;;;;20.83;6.32;;;4.00;73.80;;;;;;4998389;28;20084;-84
2021/04/07 05:53:08;;;;;;;30.40;6.25;;;4.50;73.10;;;;;;5013434;28;20026;-84
2021/04/07 05:55:34;;;;;;;50.92;8.20;;;4.40;78.90;;;;;;5014026;28;20033;-81
2021/04/07 05:58:08;;;;;;;13.50;6.50;;;5.00;74.70;;;;;;4997238;28;20041;-83
2021/04/07 06:00:34;;;;;;;27.50;6.65;;;4.40;65.50;;;;;;5011736;28;20033;-84
2021/04/07 06:03:03;;;;;;;20.00;6.88;;;4.00;73.70;;;;;;5002271;28;20034;-83
2021/04/07 06:05:29;;;;;;;14.95;6.88;;;4.30;69.40;;;;;;4985188;28;20037;-84
2021/04/07 06:07:55;;;;;;;24.95;6.70;;;4.70;70.10;;;;;;4981078;28;20022;-86
2021/04/07 06:10:24;;;;;;;17.23;6.45;;;5.40;69.50;;;;;;4974221;28;20038;-81
2021/04/07 06:12:52;;;;;;;19.45;7.68;;;5.30;65.10;;;;;;4989290;28;20030;-82
2021/04/07 06:15:18;;;;;;;17.83;6.75;;;4.80;66.80;;;;;;4983070;28;20042;-84
2021/04/07 06:18:06;;;;;;;81.70;11.65;;;5.30;67.20;;;;;;4979908;28;20092;-84
2021/04/07 06:20:33;;;;;;;156.93;18.65;;;5.70;70.70;;;;;;4998555;28;20038;-85
2021/04/07 06:23:00;;;;;;;35.80;15.70;;;5.90;71.60;;;;;;4978892;28;20034;-83
2021/04/07 06:25:27;;;;;;;38.05;20.50;;;6.00;63.90;;;;;;4978400;28;20030;-83
2021/04/07 06:27:57;;;;;;;38.88;16.35;;;6.10;63.80;;;;;;4995420;28;20458;-83
2021/04/07 06:30:24;;;;;;;50.85;36.40;;;5.90;62.50;;;;;;4984111;28;20478;-85
2021/04/07 06:32:51;;;;;;;37.72;17.08;;;5.30;64.50;;;;;;4989703;28;20030;-81
2021/04/07 06:35:18;;;;;;;38.45;25.83;;;5.20;63.80;;;;;;4970946;28;20034;-81
2021/04/07 06:37:45;;;;;;;12.80;3.42;;;5.20;63.60;;;;;;5002985;28;20052;-82
2021/04/07 06:40:11;;;;;;;56.70;4.45;;;5.20;59.10;;;;;;5004461;28;20034;-84
2021/04/07 06:42:37;;;;;;;55.72;4.78;;;5.30;56.90;;;;;;5000110;28;20161;-83
2021/04/07 06:45:04;;;;;;;126.60;6.88;;;5.40;57.50;;;;;;5001865;28;20034;-82
2021/04/07 06:47:31;;;;;;;68.82;5.55;;;6.00;58.40;;;;;;4999227;28;20029;-85
2021/04/07 06:49:59;;;;;;;5.90;0.93;;;6.30;56.10;;;;;;4999151;28;20034;-85
2021/04/07 06:52:27;;;;;;;48.55;4.50;;;6.60;49.70;;;;;;5005507;28;20056;-84
2021/04/07 06:54:54;;;;;;;58.78;3.97;;;6.50;53.10;;;;;;5022705;28;20029;-84
2021/04/07 06:57:20;;;;;;;30.27;5.50;;;6.70;54.60;;;;;;5025981;28;20034;-80
2021/04/07 06:59:48;;;;;;;2.72;1.52;;;6.60;54.20;;;;;;5022280;28;20030;-83
2021/04/07 07:02:16;;;;;;;5.57;0.95;;;6.30;49.50;;;;;;5022783;28;20485;-84
2021/04/07 07:04:44;;;;;;;10.20;1.77;;;5.80;49.50;;;;;;5045619;28;20018;-83
2021/04/07 07:07:10;;;;;;;12.27;1.77;;;5.70;52.20;;;;;;5043109;23;20040;-83
2021/04/07 07:12:02;;;;;;;4.60;0.77;;;5.90;50.70;;;;;;5201955;22;20565;-84
2021/04/07 07:14:28;;;;;;;104.63;6.47;;;5.80;49.40;;;;;;5024349;28;20061;-85
2021/04/07 07:16:56;;;;;;;15.57;3.17;;;6.10;52.90;;;;;;5020028;28;20481;-81
2021/04/07 07:19:34;;;;;;;8.23;1.52;;;6.70;49.50;;;;;;5017672;28;20068;-81
2021/04/07 07:22:02;;;;;;;1.52;0.77;;;6.80;48.00;;;;;;5017904;28;20025;-80
2021/04/07 07:24:34;;;;;;;1.15;0.65;;;6.60;46.80;;;;;;5017513;28;20029;-80
2021/04/07 07:27:05;;;;;;;1.65;0.50;;;6.60;48.70;;;;;;5017753;28;20094;-82
2021/04/07 07:29:33;;;;;;;20.95;2.30;;;6.60;47.70;;;;;;5034726;28;20029;-80
2021/04/07 07:32:05;;;;;;;2.33;0.70;;;6.30;47.80;;;;;;5016889;28;20502;-81
2021/04/07 07:34:31;;;;;;;0.85;0.40;;;6.50;49.00;;;;;;5016647;28;20021;-79
2021/04/07 07:36:58;;;;;;;1.33;0.50;;;6.70;47.20;;;;;;5016416;28;20037;-81
2021/04/07 07:39:36;;;;;;;1.20;0.50;;;6.60;47.20;;;;;;5016389;28;20024;-79
2021/04/07 07:42:10;;;;;;;1.15;0.60;;;6.50;47.80;;;;;;5016340;28;20554;-80
2021/04/07 07:44:37;;;;;;;2.08;0.70;;;6.50;47.10;;;;;;5015949;28;20024;-81
2021/04/07 07:47:16;;;;;;;4.07;1.10;;;6.90;47.70;;;;;;5034446;28;20025;-79
2021/04/07 07:49:52;;;;;;;2.92;0.70;;;7.20;46.40;;;;;;5015740;28;20025;-79
2021/04/07 07:52:28;;;;;;;5.07;0.95;;;7.20;46.10;;;;;;5016715;28;20039;-79
2021/04/07 07:54:54;;;;;;;2.17;0.60;;;7.10;44.60;;;;;;5016343;28;20068;-81
2021/04/07 07:57:20;;;;;;;2.95;0.95;;;7.00;45.30;;;;;;5007458;28;20069;-80
2021/04/07 07:59:45;;;;;;;2.03;0.80;;;7.10;45.40;;;;;;4997027;28;20044;-80
2021/04/07 08:02:18;;;;;;;1.33;0.47;;;6.80;45.60;;;;;;4995937;28;20037;-79
2021/04/07 08:04:46;;;;;;;2.75;0.70;;;7.00;45.90;;;;;;4996416;28;20061;-80
2021/04/07 08:07:13;;;;;;;1.10;0.60;;;7.00;45.10;;;;;;4995414;28;20025;-77
2021/04/07 08:09:39;;;;;;;15.82;2.38;;;7.10;45.80;;;;;;4996220;28;20029;-75
2021/04/07 08:12:06;;;;;;;10.38;1.05;;;7.40;48.30;;;;;;5013822;28;20054;-77
2021/04/07 08:14:32;;;;;;;36.17;3.38;;;7.20;44.40;;;;;;4995799;28;20424;-76
2021/04/07 08:16:58;;;;;;;4.90;1.23;;;7.20;46.40;;;;;;4995486;28;20038;-78
2021/04/07 08:19:24;;;;;;;19.20;1.50;;;7.10;45.70;;;;;;4995637;28;20034;-79
2021/04/07 08:21:50;;;;;;;4.57;2.85;;;7.20;46.20;;;;;;5014386;28;20026;-80
2021/04/07 08:24:18;;;;;;;3.83;2.97;;;7.20;44.50;;;;;;4997285;28;20033;-80
2021/04/07 08:26:45;;;;;;;19.65;7.57;;;7.10;44.00;;;;;;5014398;28;20022;-84
2021/04/07 08:29:11;;;;;;;4.15;2.40;;;7.30;44.00;;;;;;4996710;28;20045;-81
2021/04/07 08:31:43;;;;;;;6.25;1.88;;;7.20;42.10;;;;;;4996566;28;20029;-83
2021/04/07 08:34:10;;;;;;;8.60;1.35;;;7.10;42.70;;;;;;4996637;28;20018;-82
2021/04/07 08:36:41;;;;;;;2.13;0.80;;;6.90;43.60;;;;;;4995841;28;20026;-82
2021/04/07 08:39:18;;;;;;;3.40;1.48;;;6.70;42.40;;;;;;5012406;28;20030;-82
2021/04/07 08:41:45;;;;;;;2.53;1.08;;;6.80;43.50;;;;;;5013498;28;20025;-81
2021/04/07 08:44:12;;;;;;;9.30;1.45;;;6.90;43.80;;;;;;5013200;28;20032;-82
2021/04/07 08:46:47;;;;;;;4.82;1.38;;;6.60;45.40;;;;;;4995176;28;20119;-80
2021/04/07 08:49:39;;;;;;;11.98;1.67;;;6.80;44.60;;;;;;4996166;28;20022;-81
2021/04/07 08:52:23;;;;;;;20.05;1.73;;;6.80;42.80;;;;;;5013545;28;20033;-80
2021/04/07 08:54:50;;;;;;;2.55;1.20;;;6.90;42.40;;;;;;5013267;28;20022;-79
2021/04/07 08:57:29;;;;;;;17.25;1.88;;;6.80;41.40;;;;;;5013179;28;20041;-82
2021/04/07 08:59:56;;;;;;;11.77;1.90;;;6.80;41.70;;;;;;5014149;28;20100;-79
2021/04/07 09:02:22;;;;;;;7.25;1.00;;;6.70;43.40;;;;;;5011788;28;20037;-79
2021/04/07 09:05:08;;;;;;;19.85;2.20;;;6.80;44.30;;;;;;4996198;28;20022;-82
2021/04/07 09:07:38;;;;;;;8.23;2.05;;;7.20;44.50;;;;;;4996940;28;20030;-81
2021/04/07 09:10:18;;;;;;;19.13;2.05;;;7.20;44.90;;;;;;5014065;28;20029;-81
2021/04/07 09:12:47;;;;;;;3.17;1.27;;;7.40;44.80;;;;;;5013472;28;20080;-81
2021/04/07 09:15:15;;;;;;;12.60;1.92;;;7.30;43.70;;;;;;4995134;28;20026;-82
2021/04/07 09:17:52;;;;;;;16.90;1.95;;;7.50;45.60;;;;;;5011475;28;20033;-79
2021/04/07 09:20:46;;;;;;;4.43;2.05;;;7.50;43.80;;;;;;5013020;28;20030;-80
2021/04/07 09:23:31;;;;;;;2.45;1.20;;;7.50;44.70;;;;;;4979408;28;20026;-80
2021/04/07 09:26:10;;;;;;;3.45;1.02;;;7.60;42.70;;;;;;4995720;28;20053;-79
2021/04/07 09:28:44;;;;;;;2.78;0.90;;;7.80;42.40;;;;;;4981503;28;20026;-79
2021/04/07 09:31:34;;;;;;;1.67;0.82;;;7.80;41.40;;;;;;5021781;28;20021;-80
2021/04/07 09:34:00;;;;;;;3.83;1.05;;;7.60;39.40;;;;;;4971413;28;20404;-79
2021/04/07 09:36:34;;;;;;;1.73;0.50;;;7.40;41.00;;;;;;4998190;28;20029;-80
2021/04/07 09:39:03;;;;;;;6.95;1.17;;;7.20;37.40;;;;;;4997503;28;20465;-80
2021/04/07 09:41:34;;;;;;;0.90;0.50;;;7.20;38.80;;;;;;5001678;28;20037;-81
2021/04/07 09:44:02;;;;;;;4.97;1.08;;;7.20;39.40;;;;;;4996285;28;20116;-80
2021/04/07 09:46:28;;;;;;;3.65;0.80;;;7.20;39.60;;;;;;4991171;28;20148;-80
2021/04/07 09:49:05;;;;;;;1.23;0.50;;;7.00;40.00;;;;;;5014722;28;20552;-79
2021/04/07 09:51:39;;;;;;;2.80;0.70;;;7.00;41.10;;;;;;5012458;28;20053;-82
2021/04/07 09:54:14;;;;;;;1.02;0.60;;;7.00;40.00;;;;;;4995612;28;20018;-80
2021/04/07 09:56:59;;;;;;;;;;;7.30;39.80;;;;;;4996599;28;20104;-80
2021/04/07 09:59:48;;;;;;;4.30;1.90;;;7.40;40.20;;;;;;5000791;28;19995;-78
2021/04/07 10:02:23;;;;;;;6.40;1.08;;;7.40;39.00;;;;;;5015558;28;20036;-80
2021/04/07 10:04:51;;;;;;;9.70;0.75;;;7.40;38.60;;;;;;5035248;28;20026;-84
2021/04/07 10:07:22;;;;;;;4.05;0.70;;;7.60;38.00;;;;;;5024114;28;20029;-82
2021/04/07 10:09:53;;;;;;;1.10;0.68;;;7.60;38.50;;;;;;5018754;28;20083;-83
2021/04/07 10:12:21;;;;;;;1.73;0.95;;;7.60;38.30;;;;;;5018576;28;20073;-84
2021/04/07 10:14:54;;;;;;;2.10;0.50;;;7.50;38.20;;;;;;5023792;28;20030;-83
2021/04/07 10:21:11;;;;;;;2.55;0.63;;;7.50;40.10;;;;;;5023190;28;20057;-79
2021/04/07 10:26:09;;;;;;;2.63;0.68;;;7.70;36.40;;;;;;5087466;23;20440;-79
2021/04/07 10:28:41;;;;;;;2.40;0.60;;;7.70;35.50;;;;;;5030134;28;20036;-82
2021/04/07 10:31:11;;;;;;;1.27;0.85;;;7.70;34.40;;;;;;5034939;28;20041;-79
2021/04/07 10:34:20;;;;;;;0.93;0.43;;;7.80;35.30;;;;;;5057151;28;20041;-83
2021/04/07 10:36:54;;;;;;;4.47;2.38;;;7.80;33.90;;;;;;5037183;28;20053;-85
2021/04/07 10:39:21;;;;;;;1.35;0.60;;;7.90;34.60;;;;;;5030920;28;20022;-85
2021/04/07 10:41:48;;;;;;;1.52;0.60;;;8.10;35.50;;;;;;5038503;23;20072;-81
2021/04/07 10:44:27;;;;;;;8.18;0.95;;;7.80;33.00;;;;;;5044733;28;20037;-80
2021/04/07 10:46:54;;;;;;;7.68;1.23;;;7.80;36.00;;;;;;5027036;28;20495;-79
2021/04/07 10:49:23;;;;;;;1.23;0.40;;;7.90;35.20;;;;;;5048410;28;20049;-80
2021/04/07 10:52:06;;;;;;;1.85;0.50;;;8.00;35.20;;;;;;5013494;28;20407;-80
2021/04/07 10:54:34;;;;;;;1.48;0.30;;;8.00;34.70;;;;;;5045486;28;20034;-78
2021/04/07 10:57:10;;;;;;;1.58;0.60;;;8.10;33.70;;;;;;5040061;23;20060;-79
2021/04/07 10:59:42;;;;;;;;;;;7.80;35.10;;;;;;5027460;28;20046;-80
2021/04/07 11:02:16;;;;;;;54.30;4.35;;;7.90;33.70;;;;;;4999189;28;19959;-84
2021/04/07 11:04:42;;;;;;;22.80;2.10;;;8.20;38.80;;;;;;5023027;28;20034;-84
2021/04/07 11:07:12;;;;;;;1.27;0.70;;;8.20;36.20;;;;;;5007959;28;20493;-81
2021/04/07 11:09:46;;;;;;;2.03;0.43;;;7.70;33.60;;;;;;5006862;28;20036;-83
2021/04/07 11:12:14;;;;;;;3.33;0.47;;;7.60;34.60;;;;;;4990627;28;20445;-84
2021/04/07 11:14:41;;;;;;;3.65;0.50;;;7.40;35.00;;;;;;5006192;28;20034;-86
2021/04/07 11:17:14;;;;;;;53.25;34.38;;;7.30;35.60;;;;;;5003591;28;20113;-84
2021/04/07 11:19:40;;;;;;;6.82;4.57;;;7.30;34.80;;;;;;5021439;28;20032;-83
2021/04/07 11:22:08;;;;;;;1.52;1.10;;;7.50;35.10;;;;;;4989695;28;20029;-85
2021/04/07 11:24:35;;;;;;;4.15;1.98;;;7.70;35.60;;;;;;5021330;28;20076;-83
2021/04/07 11:27:01;;;;;;;1.15;0.70;;;8.00;33.80;;;;;;5003389;28;20119;-83
2021/04/07 11:29:27;;;;;;;0.80;0.47;;;8.10;33.10;;;;;;5006626;28;20104;-83
2021/04/07 11:31:54;;;;;;;3.95;1.00;;;7.90;32.90;;;;;;4991523;28;20041;-83
2021/04/07 11:34:27;;;;;;;4.70;1.40;;;7.80;33.40;;;;;;5020949;28;20026;-83
2021/04/07 11:42:02;;;;;;;1.70;0.98;;;7.90;33.40;;;;;;5019826;28;20041;-78
2021/04/07 11:44:29;;;;;;;1.80;0.55;;;7.80;33.80;;;;;;5004084;28;20029;-84
2021/04/07 11:46:59;;;;;;;5.28;0.68;;;7.80;33.50;;;;;;4989722;28;20053;-83
2021/04/07 11:49:25;;;;;;;3.20;0.70;;;7.90;34.00;;;;;;5022759;28;20026;-84
2021/04/07 11:51:52;;;;;;;2.60;0.70;;;7.90;33.60;;;;;;5006996;28;20022;-85
2021/04/07 11:54:18;;;;;;;7.10;0.40;;;8.10;33.50;;;;;;4985839;28;20040;-83
2021/04/07 11:56:46;;;;;;;14.18;0.90;;;8.00;32.00;;;;;;5001680;28;20037;-82
2021/04/07 11:59:19;;;;;;;1.48;0.60;;;8.10;32.60;;;;;;5001720;28;20053;-82
2021/04/07 12:01:48;;;;;;;2.55;0.45;;;8.10;31.70;;;;;;4983471;28;20405;-81
2021/04/07 12:04:15;;;;;;;0.40;0.22;;;7.80;29.90;;;;;;4990165;28;20054;-83
2021/04/07 12:06:42;;;;;;;1.48;0.75;;;7.70;30.70;;;;;;4989501;28;20398;-82
2021/04/07 12:09:09;;;;;;;0.73;0.40;;;7.80;31.20;;;;;;4973561;28;20386;-84
2021/04/07 12:11:36;;;;;;;1.45;0.82;;;7.70;32.30;;;;;;4984536;28;20397;-81
2021/04/07 12:14:03;;;;;;;0.82;0.30;;;8.10;32.60;;;;;;4969867;28;20034;-82
2021/04/07 12:16:37;;;;;;;4.25;3.47;;;8.00;31.40;;;;;;4973689;28;20050;-83
2021/04/07 12:19:11;;;;;;;13.70;1.20;;;7.90;32.50;;;;;;4991128;28;20050;-80
2021/04/07 12:21:42;;;;;;;6.72;0.70;;;7.90;32.60;;;;;;5003962;28;20057;-82
2021/04/07 12:24:08;;;;;;;1.63;0.60;;;8.00;32.10;;;;;;5004522;28;20451;-84
2021/04/07 12:26:56;;;;;;;8.18;0.70;;;7.90;31.80;;;;;;4981954;28;20042;-80
2021/04/07 12:29:25;;;;;;;1.08;0.40;;;8.20;32.50;;;;;;5007898;28;20038;-82
2021/04/07 12:31:50;;;;;;;4.55;0.95;;;8.30;32.00;;;;;;4981945;28;20029;-84
2021/04/07 12:34:16;;;;;;;3.45;1.05;;;8.30;31.60;;;;;;4979129;28;20034;-84
2021/04/07 12:36:42;;;;;;;2.83;0.40;;;8.20;31.60;;;;;;4979480;28;20585;-84
2021/04/07 12:39:08;;;;;;;1.23;0.50;;;8.00;30.40;;;;;;4979233;28;20030;-84
2021/04/07 12:44:03;;;;;;;1.13;0.60;;;7.80;31.50;;;;;;4999571;28;20040;-84
2021/04/07 12:46:29;;;;;;;2.03;0.75;;;7.30;28.00;;;;;;4999247;28;20129;-82
2021/04/07 12:48:55;;;;;;;1.08;0.90;;;7.20;28.40;;;;;;4980313;28;20034;-81
2021/04/07 12:51:22;;;;;;;1.98;1.02;;;7.20;28.70;;;;;;4980625;28;20453;-81
2021/04/07 12:53:50;;;;;;;4.45;1.98;;;7.20;28.90;;;;;;4995974;28;20031;-79
2021/04/07 12:56:17;;;;;;;0.90;0.60;;;7.20;29.80;;;;;;4978885;28;20027;-81
2021/04/07 12:58:44;;;;;;;0.77;0.40;;;7.20;30.70;;;;;;4986882;28;20050;-80
2021/04/07 13:01:10;;;;;;;2.83;1.98;;;7.50;31.70;;;;;;4994266;28;20053;-83
2021/04/07 13:03:36;;;;;;;5.25;4.75;;;7.50;30.70;;;;;;4994216;28;20027;-85
2021/04/07 13:06:01;;;;;;;7.00;5.50;;;7.50;30.60;;;;;;4993607;28;20385;-80
2021/04/07 13:08:27;;;;;;;2.33;1.88;;;7.40;31.50;;;;;;4995314;28;20080;-83
2021/04/07 13:10:53;;;;;;;2.90;2.50;;;7.40;31.30;;;;;;4995866;28;20437;-85
2021/04/07 13:13:21;;;;;;;53.65;8.35;;;7.20;32.00;;;;;;4996177;28;20029;-85
2021/04/07 13:15:47;;;;;;;26.27;16.48;;;7.20;33.30;;;;;;4965102;28;20125;-83
2021/04/07 13:18:13;;;;;;;11.65;4.95;;;7.50;35.30;;;;;;4997402;28;20057;-82
2021/04/07 13:20:39;;;;;;;26.95;18.42;;;7.50;32.30;;;;;;4997372;28;20037;-80